createdAt,value
2019-01-02T00:00:32.981Z,46.84
2019-01-02T00:01:34.469Z,46.86
2019-01-02T00:02:31.696Z,46.87
2019-01-02T00:03:32.933Z,46.85
2019-01-02T00:04:31.826Z,46.86
2019-01-02T00:05:31.743Z,46.88
2019-01-02T00:06:34.299Z,46.87
2019-01-02T00:07:32.283Z,46.87
2019-01-02T00:08:31.755Z,46.91
2019-01-02T00:09:34.322Z,46.89
2019-01-02T00:10:31.726Z,46.89
2019-01-02T00:11:31.802Z,46.9
2019-01-02T00:12:31.520Z,46.85
2019-01-02T00:13:31.354Z,46.88
2019-01-02T00:14:34.151Z,46.84
2019-01-02T00:15:32.442Z,46.91
2019-01-02T00:16:31.943Z,46.9
2019-01-02T00:17:34.173Z,46.86
2019-01-02T00:18:31.829Z,46.84
2019-01-02T00:19:31.845Z,46.86
2019-01-02T00:20:31.544Z,46.84
2019-01-02T00:21:32.124Z,46.83
2019-01-02T00:22:34.112Z,46.85
2019-01-02T00:23:31.757Z,46.84
2019-01-02T00:24:31.943Z,46.84
2019-01-02T00:25:34.026Z,46.8
2019-01-02T00:26:31.854Z,46.84
2019-01-02T00:27:31.587Z,46.79
2019-01-02T00:28:32.333Z,46.82
2019-01-02T00:29:31.826Z,46.78
2019-01-02T00:30:34.369Z,46.79
2019-01-02T00:31:31.583Z,46.79
2019-01-02T00:32:32.283Z,46.79
2019-01-02T00:33:34.701Z,46.8
2019-01-02T00:34:32.119Z,46.8
2019-01-02T00:35:33.813Z,46.77
2019-01-02T00:36:31.829Z,46.76
2019-01-02T00:37:31.534Z,46.76
2019-01-02T00:38:33.916Z,46.76
2019-01-02T00:39:31.513Z,46.72
2019-01-02T00:40:31.698Z,46.76
2019-01-02T00:41:31.653Z,46.76
2019-01-02T00:42:31.816Z,46.7
2019-01-02T00:43:34.053Z,46.71
2019-01-02T00:44:31.519Z,46.7
2019-01-02T00:45:32.037Z,46.7
2019-01-02T00:46:33.972Z,46.71
2019-01-02T00:47:31.557Z,46.71
2019-01-02T00:48:33.146Z,46.71
2019-01-02T00:49:31.748Z,46.65
2019-01-02T00:50:31.982Z,46.7
2019-01-02T00:51:34.211Z,46.67
2019-01-02T00:52:32.019Z,46.69
2019-01-02T00:53:32.509Z,46.74
2019-01-02T00:54:31.441Z,46.72
2019-01-02T00:55:31.447Z,46.69
2019-01-02T00:56:34.147Z,46.71
2019-01-02T00:57:31.470Z,46.66
2019-01-02T00:58:33.672Z,46.69
2019-01-02T00:59:31.661Z,46.68
2019-01-02T01:00:32.366Z,46.63
2019-01-02T01:01:33.364Z,46.65
2019-01-02T01:02:31.824Z,46.64
2019-01-02T01:03:34.399Z,46.69
2019-01-02T01:04:31.524Z,46.65
2019-01-02T01:05:31.974Z,46.64
2019-01-02T01:06:34.217Z,46.57
2019-01-02T01:07:31.868Z,46.63
2019-01-02T01:08:34.028Z,46.6
2019-01-02T01:09:31.486Z,46.62
2019-01-02T01:10:31.813Z,46.69
2019-01-02T01:11:33.947Z,46.65
2019-01-02T01:12:31.552Z,46.63
2019-01-02T01:13:34.476Z,46.64
2019-01-02T01:14:31.696Z,46.62
2019-01-02T01:15:31.782Z,46.62
2019-01-02T01:16:33.982Z,46.63
2019-01-02T01:17:31.506Z,46.62
2019-01-02T01:18:33.995Z,46.66
2019-01-02T01:19:31.772Z,46.66
2019-01-02T01:20:31.461Z,46.66
2019-01-02T01:21:34.119Z,46.67
2019-01-02T01:22:31.479Z,46.66
2019-01-02T01:23:31.663Z,46.7
2019-01-02T01:24:34.449Z,46.74
2019-01-02T01:25:31.998Z,46.7
2019-01-02T01:26:32.824Z,46.72
2019-01-02T01:27:33.855Z,46.67
2019-01-02T01:28:31.826Z,46.67
2019-01-02T01:29:31.631Z,46.65
2019-01-02T01:30:31.501Z,46.61
2019-01-02T01:31:32.465Z,46.68
2019-01-02T01:32:31.441Z,46.67
2019-01-02T01:33:31.805Z,46.63
2019-01-02T01:34:31.651Z,46.66
2019-01-02T01:35:31.949Z,46.63
2019-01-02T01:36:31.770Z,46.65
2019-01-02T01:37:32.245Z,46.66
2019-01-02T01:38:32.512Z,46.64
2019-01-02T01:39:31.676Z,46.68
2019-01-02T01:40:31.512Z,46.64
2019-01-02T01:41:34.607Z,46.63
2019-01-02T01:42:31.662Z,46.62
2019-01-02T01:43:31.722Z,46.62
2019-01-02T01:44:33.464Z,46.7
2019-01-02T01:45:31.422Z,46.69
2019-01-02T01:46:31.615Z,46.66
2019-01-02T01:47:33.179Z,46.68
2019-01-02T01:48:31.434Z,46.69
2019-01-02T01:49:31.790Z,46.68
2019-01-02T01:50:33.917Z,46.63
2019-01-02T01:51:32.790Z,46.64
2019-01-02T01:52:31.715Z,46.6
2019-01-02T01:53:31.650Z,46.61
2019-01-02T01:54:31.774Z,46.55
2019-01-02T01:55:34.185Z,46.6
2019-01-02T01:56:31.767Z,46.56
2019-01-02T01:57:31.834Z,46.6
2019-01-02T01:58:35.105Z,46.6
2019-01-02T01:59:31.459Z,46.59
2019-01-02T02:00:32.175Z,46.59
2019-01-02T02:01:34.508Z,46.59
2019-01-02T02:02:31.389Z,46.53
2019-01-02T02:03:32.068Z,46.55
2019-01-02T02:04:34.223Z,46.57
2019-01-02T02:05:31.721Z,46.54
2019-01-02T02:06:32.002Z,46.53
2019-01-02T02:07:34.144Z,46.56
2019-01-02T02:08:31.281Z,46.51
2019-01-02T02:09:31.822Z,46.56
2019-01-02T02:10:33.754Z,46.52
2019-01-02T02:11:31.496Z,46.5
2019-01-02T02:12:31.846Z,46.46
2019-01-02T02:13:31.422Z,46.51
2019-01-02T02:14:31.887Z,46.46
2019-01-02T02:15:32.378Z,46.5
2019-01-02T02:16:31.350Z,46.5
2019-01-02T02:17:31.452Z,46.44
2019-01-02T02:18:34.323Z,46.45
2019-01-02T02:19:31.701Z,46.43
2019-01-02T02:20:31.803Z,46.4
2019-01-02T02:21:34.037Z,46.41
2019-01-02T02:22:31.353Z,46.46
2019-01-02T02:23:32.356Z,46.46
2019-01-02T02:24:33.956Z,46.46
2019-01-02T02:25:32.048Z,46.46
2019-01-02T02:26:31.561Z,46.45
2019-01-02T02:27:34.084Z,46.47
2019-01-02T02:28:31.456Z,46.45
2019-01-02T02:29:31.679Z,46.42
2019-01-02T02:30:31.384Z,46.43
2019-01-02T02:31:33.904Z,46.43
2019-01-02T02:32:32.971Z,46.41
2019-01-02T02:33:34.226Z,46.35
2019-01-02T02:34:31.628Z,46.34
2019-01-02T02:35:34.344Z,46.39
2019-01-02T02:36:33.942Z,46.4
2019-01-02T02:37:31.485Z,46.36
2019-01-02T02:38:34.981Z,46.35
2019-01-02T02:39:34.168Z,46.35
2019-01-02T02:40:31.441Z,46.36
2019-01-02T02:41:35.103Z,46.37
2019-01-02T02:42:34.497Z,46.26
2019-01-02T02:43:31.492Z,46.32
2019-01-02T02:44:34.514Z,46.36
2019-01-02T02:45:34.005Z,46.33
2019-01-02T02:46:31.662Z,46.25
2019-01-02T02:47:33.813Z,46.32
2019-01-02T02:48:34.436Z,46.28
2019-01-02T02:49:31.804Z,46.35
2019-01-02T02:50:34.245Z,46.36
2019-01-02T02:51:34.457Z,46.29
2019-01-02T02:52:31.937Z,46.31
2019-01-02T02:53:33.858Z,46.33
2019-01-02T02:54:31.459Z,46.33
2019-01-02T02:55:34.283Z,46.32
2019-01-02T02:56:34.187Z,46.33
2019-01-02T02:57:31.408Z,46.27
2019-01-02T02:58:33.587Z,46.29
2019-01-02T02:59:34.516Z,46.32
2019-01-02T03:00:31.430Z,46.32
2019-01-02T03:01:34.222Z,46.32
2019-01-02T03:02:31.447Z,46.28
2019-01-02T03:03:31.458Z,46.34
2019-01-02T03:04:33.935Z,46.29
2019-01-02T03:05:31.445Z,46.29
2019-01-02T03:06:34.363Z,46.33
2019-01-02T03:07:34.367Z,46.29
2019-01-02T03:08:31.859Z,46.32
2019-01-02T03:09:31.823Z,46.28
2019-01-02T03:10:34.290Z,46.28
2019-01-02T03:11:32.170Z,46.26
2019-01-02T03:12:31.490Z,46.29
2019-01-02T03:13:34.203Z,46.27
2019-01-02T03:14:31.458Z,46.29
2019-01-02T03:15:34.513Z,46.3
2019-01-02T03:16:34.430Z,46.25
2019-01-02T03:17:32.915Z,46.27
2019-01-02T03:18:34.241Z,46.23
2019-01-02T03:19:34.454Z,46.23
2019-01-02T03:20:31.777Z,46.28
2019-01-02T03:21:33.648Z,46.23
2019-01-02T03:22:33.654Z,46.25
2019-01-02T03:23:31.512Z,46.22
2019-01-02T03:24:33.362Z,46.2
2019-01-02T03:25:34.087Z,46.2
2019-01-02T03:26:31.279Z,46.23
2019-01-02T03:27:34.510Z,46.28
2019-01-02T03:28:34.107Z,46.26
2019-01-02T03:29:34.321Z,46.2
2019-01-02T03:30:34.225Z,46.25
2019-01-02T03:31:33.925Z,46.2
2019-01-02T03:32:34.444Z,46.22
2019-01-02T03:33:31.585Z,46.2
2019-01-02T03:34:31.231Z,46.22
2019-01-02T03:35:31.660Z,46.21
2019-01-02T03:36:31.458Z,46.24
2019-01-02T03:37:31.881Z,46.21
2019-01-02T03:38:31.388Z,46.22
2019-01-02T03:39:31.459Z,46.18
2019-01-02T03:40:31.408Z,46.22
2019-01-02T03:41:31.701Z,46.22
2019-01-02T03:42:32.186Z,46.25
2019-01-02T03:43:31.302Z,46.22
2019-01-02T03:44:31.748Z,46.19
2019-01-02T03:45:31.517Z,46.28
2019-01-02T03:46:31.496Z,46.25
2019-01-02T03:47:31.461Z,46.23
2019-01-02T03:48:31.456Z,46.26
2019-01-02T03:49:31.375Z,46.22
2019-01-02T03:50:31.590Z,46.23
2019-01-02T03:51:31.345Z,46.23
2019-01-02T03:52:31.556Z,46.28
2019-01-02T03:53:31.597Z,46.23
2019-01-02T03:54:31.681Z,46.21
2019-01-02T03:55:31.787Z,46.25
2019-01-02T03:56:31.294Z,46.21
2019-01-02T03:57:31.436Z,46.28
2019-01-02T03:58:31.329Z,46.24
2019-01-02T03:59:31.398Z,46.2
2019-01-02T04:00:31.212Z,46.23
2019-01-02T04:01:31.638Z,46.22
2019-01-02T04:02:31.766Z,46.18
2019-01-02T04:03:31.511Z,46.22
2019-01-02T04:04:31.319Z,46.2
2019-01-02T04:05:31.578Z,46.21
2019-01-02T04:06:31.792Z,46.21
2019-01-02T04:07:31.294Z,46.22
2019-01-02T04:08:31.647Z,46.25
2019-01-02T04:09:31.487Z,46.25
2019-01-02T04:10:31.496Z,46.16
2019-01-02T04:11:31.440Z,46.17
2019-01-02T04:12:31.495Z,46.19
2019-01-02T04:13:31.547Z,46.2
2019-01-02T04:14:31.797Z,46.22
2019-01-02T04:15:31.362Z,46.2
2019-01-02T04:16:31.654Z,46.19
2019-01-02T04:17:31.370Z,46.19
2019-01-02T04:18:31.752Z,46.22
2019-01-02T04:19:32.343Z,46.22
2019-01-02T04:20:31.589Z,46.19
2019-01-02T04:21:31.792Z,46.23
2019-01-02T04:22:31.396Z,46.21
2019-01-02T04:23:31.344Z,46.15
2019-01-02T04:24:31.651Z,46.21
2019-01-02T04:25:31.776Z,46.26
2019-01-02T04:26:31.339Z,46.27
2019-01-02T04:27:31.489Z,46.24
2019-01-02T04:28:31.725Z,46.23
2019-01-02T04:29:31.420Z,46.21
2019-01-02T04:30:31.647Z,46.26
2019-01-02T04:31:31.375Z,46.2
2019-01-02T04:32:31.360Z,46.21
2019-01-02T04:33:31.732Z,46.26
2019-01-02T04:34:31.391Z,46.25
2019-01-02T04:35:31.710Z,46.22
2019-01-02T04:36:31.355Z,46.25
2019-01-02T04:37:31.416Z,46.25
2019-01-02T04:38:31.749Z,46.26
2019-01-02T04:39:31.328Z,46.23
2019-01-02T04:40:31.622Z,46.27
2019-01-02T04:41:31.822Z,46.31
2019-01-02T04:42:31.857Z,46.31
2019-01-02T04:43:31.455Z,46.34
2019-01-02T04:44:31.284Z,46.32
2019-01-02T04:45:31.451Z,46.45
2019-01-02T04:46:31.645Z,46.41
2019-01-02T04:47:31.424Z,46.38
2019-01-02T04:48:31.414Z,46.42
2019-01-02T04:49:31.562Z,46.36
2019-01-02T04:50:31.583Z,46.34
2019-01-02T04:51:31.496Z,46.36
2019-01-02T04:52:31.509Z,46.33
2019-01-02T04:53:31.852Z,46.31
2019-01-02T04:54:31.767Z,46.3
2019-01-02T04:55:31.728Z,46.28
2019-01-02T04:56:31.338Z,46.26
2019-01-02T04:57:31.675Z,46.31
2019-01-02T04:58:31.431Z,46.34
2019-01-02T04:59:31.368Z,46.36
2019-01-02T05:00:31.521Z,46.37
2019-01-02T05:01:31.661Z,46.37
2019-01-02T05:02:31.897Z,46.37
2019-01-02T05:03:31.267Z,46.33
2019-01-02T05:04:31.834Z,46.4
2019-01-02T05:05:32.204Z,46.36
2019-01-02T05:06:31.379Z,46.46
2019-01-02T05:07:31.642Z,46.41
2019-01-02T05:08:32.271Z,46.37
2019-01-02T05:09:31.415Z,46.38
2019-01-02T05:10:31.505Z,46.33
2019-01-02T05:11:31.954Z,46.32
2019-01-02T05:12:31.686Z,46.36
2019-01-02T05:13:31.278Z,46.36
2019-01-02T05:14:31.661Z,46.25
2019-01-02T05:15:31.677Z,46.22
2019-01-02T05:16:31.185Z,46.25
2019-01-02T05:17:31.410Z,46.24
2019-01-02T05:18:31.766Z,46.18
2019-01-02T05:19:31.733Z,46.2
2019-01-02T05:20:31.487Z,46.17
2019-01-02T05:21:31.458Z,46.21
2019-01-02T05:22:31.398Z,46.13
2019-01-02T05:23:31.764Z,46.13
2019-01-02T05:24:31.993Z,46.12
2019-01-02T05:25:31.432Z,46.12
2019-01-02T05:26:31.751Z,46.11
2019-01-02T05:27:31.807Z,46.09
2019-01-02T05:28:31.473Z,46.09
2019-01-02T05:29:31.530Z,46.05
2019-01-02T05:30:31.681Z,46.16
2019-01-02T05:31:31.510Z,46.08
2019-01-02T05:32:31.476Z,46.08
2019-01-02T05:33:31.710Z,46.06
2019-01-02T05:34:31.325Z,46.08
2019-01-02T05:35:31.643Z,46.03
2019-01-02T05:36:31.702Z,46.07
2019-01-02T05:37:31.354Z,46.07
2019-01-02T05:38:31.817Z,46.08
2019-01-02T05:39:31.771Z,46.07
2019-01-02T05:40:31.240Z,46.05
2019-01-02T05:41:31.755Z,46.09
2019-01-02T05:42:31.482Z,46.06
2019-01-02T05:43:31.709Z,46.07
2019-01-02T05:44:31.398Z,46.08
2019-01-02T05:45:31.562Z,46.05
2019-01-02T05:46:31.690Z,46.09
2019-01-02T05:47:31.364Z,46.08
2019-01-02T05:48:31.378Z,46.06
2019-01-02T05:49:31.455Z,46
2019-01-02T05:50:31.785Z,46.06
2019-01-02T05:51:31.145Z,45.99
2019-01-02T05:52:31.427Z,46.05
2019-01-02T05:53:31.322Z,46.04
2019-01-02T05:54:31.426Z,46
2019-01-02T05:55:31.258Z,46
2019-01-02T05:56:31.634Z,46
2019-01-02T05:57:31.414Z,46.02
2019-01-02T05:58:31.779Z,45.99
2019-01-02T05:59:31.563Z,46.01
2019-01-02T06:00:31.467Z,46.02
2019-01-02T06:01:31.592Z,45.97
2019-01-02T06:02:31.343Z,46.02
2019-01-02T06:03:31.401Z,46.05
2019-01-02T06:04:32.159Z,46
2019-01-02T06:05:31.534Z,45.99
2019-01-02T06:06:31.246Z,46
2019-01-02T06:07:32.081Z,45.96
2019-01-02T06:08:31.727Z,45.94
2019-01-02T06:09:31.255Z,46.01
2019-01-02T06:10:31.671Z,46.01
2019-01-02T06:11:31.147Z,46.01
2019-01-02T06:12:31.303Z,45.96
2019-01-02T06:13:31.519Z,45.97
2019-01-02T06:14:31.423Z,45.93
2019-01-02T06:15:31.412Z,45.93
2019-01-02T06:16:31.385Z,45.92
2019-01-02T06:17:31.326Z,45.96
2019-01-02T06:18:31.676Z,45.93
2019-01-02T06:19:31.175Z,45.9
2019-01-02T06:20:31.510Z,45.87
2019-01-02T06:21:31.289Z,45.87
2019-01-02T06:22:31.279Z,45.84
2019-01-02T06:23:31.736Z,45.85
2019-01-02T06:24:31.135Z,45.86
2019-01-02T06:25:31.252Z,45.83
2019-01-02T06:26:31.777Z,45.85
2019-01-02T06:27:31.181Z,45.84
2019-01-02T06:28:31.548Z,45.79
2019-01-02T06:29:32.087Z,45.81
2019-01-02T06:30:31.421Z,45.72
2019-01-02T06:31:31.467Z,45.79
2019-01-02T06:32:31.280Z,45.8
2019-01-02T06:33:31.593Z,45.81
2019-01-02T06:34:32.306Z,45.79
2019-01-02T06:35:31.316Z,45.75
2019-01-02T06:36:31.608Z,45.79
2019-01-02T06:37:31.539Z,45.74
2019-01-02T06:38:31.783Z,45.74
2019-01-02T06:39:31.316Z,45.73
2019-01-02T06:40:32.069Z,45.75
2019-01-02T06:41:32.216Z,45.66
2019-01-02T06:42:32.253Z,45.74
2019-01-02T06:43:31.479Z,45.82
2019-01-02T06:44:31.577Z,44.12
2019-01-02T06:45:31.288Z,41.45
2019-01-02T06:46:31.694Z,40.28
2019-01-02T06:47:31.498Z,39.83
2019-01-02T06:48:31.180Z,39.62
2019-01-02T06:49:31.602Z,40.91
2019-01-02T06:50:31.284Z,40.97
2019-01-02T06:51:31.643Z,40.98
2019-01-02T06:52:31.964Z,41.79
2019-01-02T06:53:31.176Z,42.26
2019-01-02T06:54:31.338Z,42.64
2019-01-02T06:55:31.347Z,42.94
2019-01-02T06:56:31.461Z,43.18
2019-01-02T06:57:31.628Z,43.54
2019-01-02T06:58:31.636Z,43.69
2019-01-02T06:59:31.701Z,43.88
2019-01-02T07:00:31.225Z,43.95
2019-01-02T07:01:31.266Z,44.02
2019-01-02T07:02:31.879Z,44.03
2019-01-02T07:03:31.245Z,44.1
2019-01-02T07:04:31.211Z,44.15
2019-01-02T07:05:32.337Z,44.19
2019-01-02T07:06:31.290Z,44.27
2019-01-02T07:07:31.519Z,44.25
2019-01-02T07:08:31.351Z,44.3
2019-01-02T07:09:31.274Z,44.31
2019-01-02T07:10:31.453Z,44.36
2019-01-02T07:11:31.388Z,44.38
2019-01-02T07:12:31.691Z,44.38
2019-01-02T07:13:31.687Z,44.37
2019-01-02T07:14:31.910Z,44.4
2019-01-02T07:15:32.101Z,44.45
2019-01-02T07:16:31.737Z,44.46
2019-01-02T07:17:31.228Z,44.5
2019-01-02T07:18:32.036Z,44.53
2019-01-02T07:19:31.516Z,44.56
2019-01-02T07:20:31.251Z,44.48
2019-01-02T07:21:31.798Z,44.62
2019-01-02T07:22:31.408Z,44.57
2019-01-02T07:23:31.365Z,44.6
2019-01-02T07:24:31.767Z,44.64
2019-01-02T07:25:31.709Z,44.61
2019-01-02T07:26:31.312Z,44.6
2019-01-02T07:27:31.304Z,44.62
2019-01-02T07:28:31.329Z,44.61
2019-01-02T07:29:31.306Z,44.69
2019-01-02T07:30:31.385Z,44.66
2019-01-02T07:31:32.256Z,44.74
2019-01-02T07:32:31.395Z,44.67
2019-01-02T07:33:31.161Z,44.54
2019-01-02T07:34:31.651Z,44.45
2019-01-02T07:35:31.235Z,44.45
2019-01-02T07:36:31.845Z,44.49
2019-01-02T07:37:31.508Z,44.5
2019-01-02T07:38:31.250Z,44.51
2019-01-02T07:39:32.295Z,44.33
2019-01-02T07:40:31.304Z,44.35
2019-01-02T07:41:31.689Z,44.41
2019-01-02T07:42:31.524Z,44.46
2019-01-02T07:43:31.766Z,44.46
2019-01-02T07:44:31.296Z,44.54
2019-01-02T07:45:32.224Z,44.6
2019-01-02T07:46:31.564Z,44.56
2019-01-02T07:47:32.244Z,44.56
2019-01-02T07:48:31.282Z,44.64
2019-01-02T07:49:31.493Z,44.61
2019-01-02T07:50:31.388Z,44.59
2019-01-02T07:51:31.498Z,44.61
2019-01-02T07:52:31.307Z,44.58
2019-01-02T07:53:31.301Z,44.57
2019-01-02T07:54:31.406Z,44.66
2019-01-02T07:55:31.358Z,44.63
2019-01-02T07:56:31.349Z,44.59
2019-01-02T07:57:31.283Z,44.65
2019-01-02T07:58:31.103Z,44.68
2019-01-02T07:59:31.340Z,44.7
2019-01-02T08:00:31.292Z,44.64
2019-01-02T08:01:31.285Z,44.65
2019-01-02T08:02:31.464Z,44.65
2019-01-02T08:03:31.241Z,44.7
2019-01-02T08:04:31.281Z,44.79
2019-01-02T08:05:31.296Z,44.8
2019-01-02T08:06:31.189Z,44.79
2019-01-02T08:07:31.437Z,44.76
2019-01-02T08:08:31.580Z,44.78
2019-01-02T08:09:31.493Z,44.79
2019-01-02T08:10:31.301Z,44.78
2019-01-02T08:11:31.234Z,44.81
2019-01-02T08:12:31.282Z,44.76
2019-01-02T08:13:31.309Z,44.87
2019-01-02T08:14:31.457Z,44.82
2019-01-02T08:15:31.919Z,44.82
2019-01-02T08:16:31.337Z,44.83
2019-01-02T08:17:31.954Z,44.87
2019-01-02T08:18:31.431Z,44.81
2019-01-02T08:19:31.133Z,44.83
2019-01-02T08:20:31.507Z,44.89
2019-01-02T08:21:31.452Z,44.85
2019-01-02T08:22:31.293Z,44.81
2019-01-02T08:23:31.705Z,44.89
2019-01-02T08:24:31.161Z,44.86
2019-01-02T08:25:32.130Z,44.92
2019-01-02T08:26:31.354Z,44.84
2019-01-02T08:27:31.494Z,44.82
2019-01-02T08:28:32.115Z,44.93
2019-01-02T08:29:31.212Z,44.89
2019-01-02T08:30:31.738Z,44.85
2019-01-02T08:31:32.017Z,44.91
2019-01-02T08:32:31.423Z,44.9
2019-01-02T08:33:31.858Z,44.87
2019-01-02T08:34:31.301Z,44.81
2019-01-02T08:35:31.087Z,44.6
2019-01-02T08:36:31.250Z,44.6
2019-01-02T08:37:31.401Z,44.7
2019-01-02T08:38:31.365Z,44.76
2019-01-02T08:39:32.093Z,44.87
2019-01-02T08:40:32.095Z,44.81
2019-01-02T08:41:32.001Z,44.84
2019-01-02T08:42:31.393Z,44.91
2019-01-02T08:43:31.766Z,44.98
2019-01-02T08:44:33.022Z,45
2019-01-02T08:45:31.580Z,45
2019-01-02T08:46:31.332Z,45.01
2019-01-02T08:47:31.440Z,44.99
2019-01-02T08:48:31.775Z,45.02
2019-01-02T08:49:31.725Z,44.93
2019-01-02T08:50:31.586Z,44.94
2019-01-02T08:51:31.470Z,44.9
2019-01-02T08:52:31.512Z,44.86
2019-01-02T08:53:31.127Z,44.82
2019-01-02T08:54:31.238Z,44.8
2019-01-02T08:55:31.594Z,44.81
2019-01-02T08:56:31.135Z,44.77
2019-01-02T08:57:31.451Z,44.8
2019-01-02T08:58:32.715Z,44.82
2019-01-02T08:59:31.302Z,44.8
2019-01-02T09:00:31.569Z,44.75
2019-01-02T09:01:31.077Z,44.79
2019-01-02T09:02:31.155Z,44.76
2019-01-02T09:03:31.301Z,44.79
2019-01-02T09:04:31.525Z,44.84
2019-01-02T09:05:31.514Z,44.78
2019-01-02T09:06:31.404Z,44.73
2019-01-02T09:07:31.242Z,44.77
2019-01-02T09:08:31.363Z,44.74
2019-01-02T09:09:31.613Z,44.74
2019-01-02T09:10:31.626Z,44.8
2019-01-02T09:11:31.260Z,44.79
2019-01-02T09:12:31.326Z,44.76
2019-01-02T09:13:31.183Z,45.04
2019-01-02T09:14:31.290Z,45.08
2019-01-02T09:15:31.454Z,45.29
2019-01-02T09:16:31.276Z,45.37
2019-01-02T09:17:31.299Z,45.26
2019-01-02T09:18:31.230Z,45.35
2019-01-02T09:19:31.502Z,45.29
2019-01-02T09:20:31.476Z,45.41
2019-01-02T09:21:31.269Z,45.57
2019-01-02T09:22:31.226Z,45.55
2019-01-02T09:23:31.591Z,45.67
2019-01-02T09:24:31.313Z,45.8
2019-01-02T09:25:31.886Z,46.02
2019-01-02T09:26:31.173Z,45.46
2019-01-02T09:27:31.343Z,45.26
2019-01-02T09:28:31.350Z,45.4
2019-01-02T09:29:32.358Z,45.51
2019-01-02T09:30:31.332Z,45.87
2019-01-02T09:31:31.782Z,45.9
2019-01-02T09:32:31.160Z,45.7
2019-01-02T09:33:31.231Z,45.9
2019-01-02T09:34:31.258Z,45.88
2019-01-02T09:35:31.600Z,46.07
2019-01-02T09:36:31.720Z,45.78
2019-01-02T09:37:31.224Z,45.97
2019-01-02T09:38:31.417Z,45.77
2019-01-02T09:39:31.419Z,45.82
2019-01-02T09:40:31.335Z,45.99
2019-01-02T09:41:31.249Z,46.03
2019-01-02T09:42:31.320Z,46.36
2019-01-02T09:43:31.155Z,46.1
2019-01-02T09:44:31.358Z,46.5
2019-01-02T09:45:31.438Z,46.32
2019-01-02T09:46:32.213Z,46.43
2019-01-02T09:47:32.845Z,46.46
2019-01-02T09:48:31.123Z,46.33
2019-01-02T09:49:31.244Z,46.5
2019-01-02T09:50:31.369Z,46.5
2019-01-02T09:51:31.096Z,46.9
2019-01-02T09:52:31.520Z,46.52
2019-01-02T09:53:31.115Z,46.52
2019-01-02T09:54:31.881Z,46.46
2019-01-02T09:55:31.259Z,47.2
2019-01-02T09:56:31.319Z,46.63
2019-01-02T09:57:31.448Z,47.06
2019-01-02T09:58:31.162Z,47.15
2019-01-02T09:59:31.289Z,47.16
2019-01-02T10:00:31.178Z,47.4
2019-01-02T10:01:31.131Z,48.48
2019-01-02T10:02:31.360Z,46.97
2019-01-02T10:03:31.352Z,46.71
2019-01-02T10:04:31.761Z,47.42
2019-01-02T10:05:31.689Z,48.55
2019-01-02T10:06:31.397Z,48.37
2019-01-02T10:07:31.213Z,48.67
2019-01-02T10:08:31.343Z,47.75
2019-01-02T10:09:31.726Z,47.14
2019-01-02T10:10:31.662Z,44.1
2019-01-02T10:11:31.365Z,44.27
2019-01-02T10:12:31.243Z,44.38
2019-01-02T10:13:31.355Z,45.11
2019-01-02T10:14:31.468Z,45.85
2019-01-02T10:15:31.252Z,45.55
2019-01-02T10:16:31.747Z,46.19
2019-01-02T10:17:31.495Z,46.14
2019-01-02T10:18:31.804Z,46.47
2019-01-02T10:19:31.889Z,46.67
2019-01-02T10:20:32.013Z,45.83
2019-01-02T10:21:31.205Z,46.3
2019-01-02T10:22:31.328Z,46.64
2019-01-02T10:23:31.530Z,46.81
2019-01-02T10:24:31.268Z,46.43
2019-01-02T10:25:31.462Z,46.41
2019-01-02T10:26:31.594Z,46.28
2019-01-02T10:27:31.243Z,46.9
2019-01-02T10:28:31.570Z,46.25
2019-01-02T10:29:31.630Z,46.39
2019-01-02T10:30:31.707Z,46.16
2019-01-02T10:31:31.273Z,46.26
2019-01-02T10:32:31.682Z,45.98
2019-01-02T10:33:32.274Z,46.13
2019-01-02T10:34:31.155Z,46.17
2019-01-02T10:35:31.322Z,46.16
2019-01-02T10:36:31.364Z,46.2
2019-01-02T10:37:31.551Z,46.09
2019-01-02T10:38:31.714Z,45.95
2019-01-02T10:39:31.431Z,46.16
2019-01-02T10:40:31.740Z,46.33
2019-01-02T10:41:31.750Z,46.14
2019-01-02T10:42:31.473Z,46.09
2019-01-02T10:43:31.167Z,46.15
2019-01-02T10:44:31.307Z,45.69
2019-01-02T10:45:31.054Z,45.89
2019-01-02T10:46:32.099Z,45.87
2019-01-02T10:47:31.297Z,45.41
2019-01-02T10:48:31.399Z,45.22
2019-01-02T10:49:31.608Z,45.14
2019-01-02T10:50:31.622Z,45.23
2019-01-02T10:51:31.067Z,45.26
2019-01-02T10:52:31.630Z,45.15
2019-01-02T10:53:31.252Z,45.12
2019-01-02T10:54:31.253Z,45.19
2019-01-02T10:55:31.036Z,45.21
2019-01-02T10:56:31.101Z,45.48
2019-01-02T10:57:31.323Z,45.29
2019-01-02T10:58:36.985Z,45.3
2019-01-02T10:59:31.142Z,45.67
2019-01-02T11:00:31.503Z,45.91
2019-01-02T11:01:31.436Z,45.83
2019-01-02T11:02:31.416Z,45.84
2019-01-02T11:03:31.242Z,45.76
2019-01-02T11:04:31.254Z,45.16
2019-01-02T11:05:31.301Z,45.28
2019-01-02T11:06:32.053Z,45.28
2019-01-02T11:07:32.119Z,45.29
2019-01-02T11:08:32.040Z,45.22
2019-01-02T11:09:31.654Z,45.19
2019-01-02T11:10:32.195Z,45.23
2019-01-02T11:11:31.151Z,45.23
2019-01-02T11:12:31.275Z,45.41
2019-01-02T11:13:31.266Z,45.41
2019-01-02T11:14:31.165Z,45.32
2019-01-02T11:15:31.265Z,45.09
2019-01-02T11:16:31.484Z,45.06
2019-01-02T11:17:31.119Z,44.8
2019-01-02T11:18:31.271Z,44.87
2019-01-02T11:19:32.737Z,44.95
2019-01-02T11:20:31.918Z,44.95
2019-01-02T11:21:31.307Z,44.99
2019-01-02T11:22:31.409Z,45.05
2019-01-02T11:23:31.200Z,45
2019-01-02T11:24:31.529Z,45.01
2019-01-02T11:25:31.439Z,44.99
2019-01-02T11:26:31.475Z,44.99
2019-01-02T11:27:31.003Z,45
2019-01-02T11:28:31.067Z,45.01
2019-01-02T11:29:31.105Z,45.03
2019-01-02T11:30:31.390Z,44.96
2019-01-02T11:31:31.128Z,45.01
2019-01-02T11:32:31.223Z,45.02
2019-01-02T11:33:31.852Z,44.99
2019-01-02T11:34:31.544Z,45.02
2019-01-02T11:35:31.630Z,44.94
2019-01-02T11:36:31.147Z,44.95
2019-01-02T11:37:31.060Z,44.89
2019-01-02T11:38:31.468Z,44.98
2019-01-02T11:39:31.405Z,44.91
2019-01-02T11:40:31.069Z,44.85
2019-01-02T11:41:31.593Z,44.9
2019-01-02T11:42:31.597Z,44.85
2019-01-02T11:43:31.055Z,44.95
2019-01-02T11:44:31.242Z,44.86
2019-01-02T11:45:31.481Z,44.99
2019-01-02T11:46:31.104Z,44.96
2019-01-02T11:47:31.140Z,44.96
2019-01-02T11:48:31.412Z,44.79
2019-01-02T11:49:31.178Z,44.78
2019-01-02T11:50:31.445Z,44.81
2019-01-02T11:51:31.583Z,44.83
2019-01-02T11:52:32.030Z,44.83
2019-01-02T11:53:31.980Z,44.79
2019-01-02T11:54:31.092Z,44.81
2019-01-02T11:55:31.247Z,44.77
2019-01-02T11:56:31.246Z,44.67
2019-01-02T11:57:31.315Z,44.67
2019-01-02T11:58:31.242Z,44.71
2019-01-02T11:59:31.712Z,44.76
2019-01-02T12:00:31.526Z,44.79
2019-01-02T12:01:31.185Z,44.79
2019-01-02T12:02:34.558Z,44.73
2019-01-02T12:03:32.009Z,44.86
2019-01-02T12:04:31.426Z,44.78
2019-01-02T12:05:31.505Z,44.72
2019-01-02T12:06:31.562Z,44.74
2019-01-02T12:07:31.699Z,44.73
2019-01-02T12:08:31.364Z,44.71
2019-01-02T12:09:31.704Z,44.82
2019-01-02T12:10:31.456Z,44.77
2019-01-02T12:11:31.167Z,44.76
2019-01-02T12:12:31.177Z,44.81
2019-01-02T12:13:31.702Z,44.88
2019-01-02T12:14:31.411Z,44.95
2019-01-02T12:15:31.200Z,44.81
2019-01-02T12:16:31.271Z,44.89
2019-01-02T12:17:31.181Z,44.84
2019-01-02T12:18:31.545Z,44.91
2019-01-02T12:19:31.403Z,44.91
2019-01-02T12:20:31.390Z,44.81
2019-01-02T12:21:31.321Z,44.97
2019-01-02T12:22:31.012Z,44.8
2019-01-02T12:23:31.106Z,44.84
2019-01-02T12:24:31.285Z,44.84
2019-01-02T12:25:31.169Z,44.94
2019-01-02T12:26:31.482Z,44.88
2019-01-02T12:27:31.617Z,44.88
2019-01-02T12:28:31.546Z,45.06
2019-01-02T12:29:31.311Z,44.95
2019-01-02T12:30:32.181Z,44.95
2019-01-02T12:31:31.514Z,45
2019-01-02T12:32:31.591Z,45.07
2019-01-02T12:33:31.440Z,44.99
2019-01-02T12:34:31.069Z,45.06
2019-01-02T12:35:31.462Z,45.04
2019-01-02T12:36:31.217Z,45.09
2019-01-02T12:37:31.549Z,45.12
2019-01-02T12:38:31.110Z,45.02
2019-01-02T12:39:31.315Z,45.18
2019-01-02T12:40:31.653Z,45.2
2019-01-02T12:41:31.303Z,45.19
2019-01-02T12:42:31.005Z,45.12
2019-01-02T12:43:31.525Z,44.98
2019-01-02T12:44:31.318Z,45.08
2019-01-02T12:45:31.178Z,45.08
2019-01-02T12:46:31.327Z,45.06
2019-01-02T12:47:31.412Z,45.12
2019-01-02T12:48:31.319Z,45.21
2019-01-02T12:49:31.548Z,45.06
2019-01-02T12:50:31.390Z,45.13
2019-01-02T12:51:31.111Z,45.1
2019-01-02T12:52:31.237Z,45.11
2019-01-02T12:53:31.347Z,45.2
2019-01-02T12:54:31.539Z,45.16
2019-01-02T12:55:31.497Z,45.19
2019-01-02T12:56:31.158Z,45.11